Time;durP1;ratioP1;P1;durP2;ratioP2;P2;SDS_P1;SDS_P2;PMS_P1;PMS_P2;Temp;Humidity;BMP_temperature;BMP_pressure;BME280_temperature;BME280_humidity;BME280_pressure;Samples;Min_cycle;Max_cycle;Signal;HPM_P1;HPM_P2
2021/10/07 00:00:50;;;;;;;13.58;9.05;;;;;;;11.74;54.92;101212.70;1742115;82;25245;-50
2021/10/07 00:03:17;;;;;;;15.15;8.78;;;;;;;11.74;54.96;101216.21;1741993;82;28105;-49
2021/10/07 00:05:44;;;;;;;13.28;7.83;;;;;;;11.71;54.94;101216.83;1741883;82;25784;-49
2021/10/07 00:08:10;;;;;;;24.25;8.68;;;;;;;11.69;55.02;101212.78;1741997;82;25635;-50
2021/10/07 00:10:38;;;;;;;16.85;8.30;;;;;;;11.67;55.14;101217.70;1741945;82;26382;-51
2021/10/07 00:13:06;;;;;;;16.65;9.03;;;;;;;11.62;55.14;101217.21;1741994;82;25537;-49
2021/10/07 00:15:33;;;;;;;13.38;8.60;;;;;;;11.58;55.12;101217.00;1741984;82;28078;-48
2021/10/07 00:17:59;;;;;;;13.98;8.53;;;;;;;11.56;55.35;101211.07;1741899;82;25691;-50
2021/10/07 00:20:26;;;;;;;12.33;8.55;;;;;;;11.52;55.30;101210.59;1741980;82;25523;-49
2021/10/07 00:22:53;;;;;;;17.80;8.53;;;;;;;11.51;55.25;101209.79;1741929;82;25676;-51
2021/10/07 00:25:20;;;;;;;19.10;8.98;;;;;;;11.50;55.38;101206.81;1748460;81;25604;-51
2021/10/07 00:27:47;;;;;;;17.60;8.45;;;;;;;11.47;55.50;101208.75;1752205;81;27250;-51
2021/10/07 00:30:16;;;;;;;14.20;8.58;;;;;;;11.46;55.54;101210.39;1752001;81;25692;-52
2021/10/07 00:33:11;;;;;;;19.75;9.05;;;;;;;11.43;55.45;101210.44;1752196;81;25705;-52
2021/10/07 00:40:52;;;;;;;14.63;8.45;;;;;;;11.34;55.67;101215.70;1752048;81;28021;-49
2021/10/07 00:43:19;;;;;;;15.95;8.58;;;;;;;11.31;55.65;101215.48;1751951;81;25462;-52
2021/10/07 00:45:58;;;;;;;19.70;8.68;;;;;;;11.26;55.68;101219.06;1751996;81;25515;-50
2021/10/07 00:48:24;;;;;;;16.20;8.53;;;;;;;11.23;55.86;101220.98;1689781;84;25727;-53
2021/10/07 00:50:52;;;;;;;23.92;11.45;;;;;;;11.18;55.82;101223.77;1718526;83;25684;-52
2021/10/07 00:53:20;;;;;;;12.33;8.13;;;;;;;11.14;55.82;101230.86;1688122;85;28119;-52
2021/10/07 00:55:47;;;;;;;15.32;8.88;;;;;;;11.09;55.97;101222.80;1718372;83;25541;-52
2021/10/07 00:58:16;;;;;;;14.83;8.85;;;;;;;11.06;56.12;101220.67;1688111;85;25523;-49
2021/10/07 01:00:44;;;;;;;18.00;9.38;;;;;;;11.03;56.02;101229.63;1718568;83;25692;-52
2021/10/07 01:03:11;;;;;;;15.75;8.98;;;;;;;11.06;56.26;101227.44;1688159;85;25695;-49
2021/10/07 01:05:39;;;;;;;13.70;9.65;;;;;;;11.02;56.20;101226.66;1718473;83;28095;-53
2021/10/07 01:08:07;;;;;;;11.75;7.92;;;;;;;11.02;56.17;101225.86;1688066;85;25748;-54
2021/10/07 01:10:34;;;;;;;15.50;8.40;;;;;;;10.98;56.24;101222.93;1718451;83;25515;-52
2021/10/07 01:13:02;;;;;;;15.30;8.68;;;;;;;10.97;56.16;101236.19;1688104;85;25625;-53
2021/10/07 01:15:30;;;;;;;14.20;8.95;;;;;;;10.94;56.20;101231.34;1718578;83;25679;-51
2021/10/07 01:17:57;;;;;;;14.35;8.73;;;;;;;10.93;56.22;101232.98;1718456;83;28354;-49
2021/10/07 01:20:25;;;;;;;15.98;8.95;;;;;;;10.92;56.43;101224.07;1688148;85;25779;-50
2021/10/07 01:22:54;;;;;;;12.78;8.40;;;;;;;10.90;56.34;101227.62;1718552;83;25661;-50
2021/10/07 01:25:21;;;;;;;13.65;8.83;;;;;;;10.87;56.37;101232.80;1688044;83;26372;-52
2021/10/07 01:27:55;;;;;;;16.30;9.08;;;;;;;10.85;56.43;101230.38;1718512;83;25714;-53
2021/10/07 01:30:22;;;;;;;20.62;8.68;;;;;;;10.81;56.49;101229.33;1688188;85;27347;-53
2021/10/07 01:32:49;;;;;;;17.05;8.63;;;;;;;10.79;56.42;101231.52;1718367;83;25741;-53
2021/10/07 01:35:16;;;;;;;14.03;8.78;;;;;;;10.80;56.51;101233.14;1718458;83;25624;-50
2021/10/07 01:37:43;;;;;;;13.35;9.00;;;;;;;10.77;56.52;101231.01;1688175;85;25614;-52
2021/10/07 01:40:11;;;;;;;14.80;10.20;;;;;;;10.76;56.47;101232.91;1718464;83;25665;-51
2021/10/07 01:42:41;;;;;;;12.18;8.68;;;;;;;10.77;56.56;101230.45;1726178;83;28138;-53
2021/10/07 01:45:10;;;;;;;13.85;8.55;;;;;;;10.74;56.53;101232.38;1752028;81;25497;-50
2021/10/07 01:47:37;;;;;;;15.85;9.98;;;;;;;10.72;56.60;101237.27;1752152;81;25611;-52
2021/10/07 01:50:07;;;;;;;18.87;9.05;;;;;;;10.72;56.48;101244.03;1751978;81;25605;-51
2021/10/07 01:52:33;;;;;;;;;;;;;;;10.69;56.50;101245.95;1754631;81;25466;-52
2021/10/07 01:55:00;;;;;;;19.02;8.45;;;;;;;10.64;56.56;101246.84;1752003;81;27341;-53
2021/10/07 01:57:27;;;;;;;19.07;9.48;;;;;;;10.61;56.65;101237.13;1751925;81;25458;-53
2021/10/07 01:59:54;;;;;;;14.95;8.83;;;;;;;10.58;56.77;101247.97;1751975;81;25681;-50
2021/10/07 02:02:20;;;;;;;16.40;9.10;;;;;;;10.56;56.72;101246.66;1751929;81;25612;-52
2021/10/07 02:04:47;;;;;;;13.55;9.00;;;;;;;10.54;56.70;101246.11;1752028;81;25458;-52
2021/10/07 02:07:14;;;;;;;19.02;9.30;;;;;;;10.51;56.75;101245.34;1751967;81;27332;-53
2021/10/07 02:09:40;;;;;;;20.05;9.15;;;;;;;10.49;56.75;101251.56;1751942;81;25637;-51
2021/10/07 02:12:08;;;;;;;16.95;9.75;;;;;;;10.48;56.78;101249.41;1751968;81;25647;-51
2021/10/07 02:14:36;;;;;;;15.48;9.33;;;;;;;10.45;56.80;101252.16;1751915;81;25632;-52
2021/10/07 02:17:05;;;;;;;15.80;10.10;;;;;;;10.46;56.95;101259.72;1752017;81;25672;-54
2021/10/07 02:19:32;;;;;;;14.53;9.63;;;;;;;10.46;57.04;101265.13;1752126;81;27386;-51
2021/10/07 02:21:59;;;;;;;17.17;9.48;;;;;;;10.42;56.84;101264.06;1751911;81;25744;-54
2021/10/07 02:24:26;;;;;;;15.75;9.55;;;;;;;10.40;56.85;101264.37;1751860;81;25651;-53
2021/10/07 02:26:53;;;;;;;27.50;10.28;;;;;;;10.40;56.82;101274.37;1741868;82;25685;-51
2021/10/07 02:29:20;;;;;;;16.55;9.23;;;;;;;10.40;56.92;101271.66;1741883;82;25639;-52
2021/10/07 02:31:46;;;;;;;17.98;9.58;;;;;;;10.38;57.00;101272.50;1741995;81;27663;-52
2021/10/07 02:34:13;;;;;;;15.25;9.38;;;;;;;10.38;56.89;101273.84;1741733;82;25532;-52
2021/10/07 02:36:40;;;;;;;17.42;9.58;;;;;;;10.34;56.88;101275.52;1741906;82;25687;-54
2021/10/07 02:39:07;;;;;;;18.80;9.20;;;;;;;10.33;56.91;101279.30;1741828;82;25613;-55
2021/10/07 02:41:35;;;;;;;16.10;8.70;;;;;;;10.31;56.90;101284.16;1741925;82;25723;-52
2021/10/07 02:44:04;;;;;;;14.45;10.05;;;;;;;10.26;56.88;101279.03;1741899;82;27381;-52
2021/10/07 02:46:31;;;;;;;16.00;8.75;;;;;;;10.24;56.90;101289.33;1741919;81;25675;-51
2021/10/07 02:48:58;;;;;;;17.15;9.15;;;;;;;10.23;56.96;101290.44;1741881;82;25503;-51
2021/10/07 02:51:24;;;;;;;16.42;9.55;;;;;;;10.24;57.01;101291.23;1741848;82;25613;-52
2021/10/07 02:53:51;;;;;;;13.70;8.95;;;;;;;10.23;57.00;101293.14;1741877;82;25659;-52
2021/10/07 02:56:19;;;;;;;15.55;9.15;;;;;;;10.19;56.84;101289.38;1741885;82;27236;-52
2021/10/07 02:58:47;;;;;;;15.60;9.23;;;;;;;10.16;56.90;101285.88;1741802;82;25712;-54
2021/10/07 03:01:14;;;;;;;15.25;10.15;;;;;;;10.12;56.95;101290.23;1741894;82;25704;-52
2021/10/07 03:03:40;;;;;;;18.80;9.95;;;;;;;10.10;56.94;101288.37;1741857;82;26118;-55
2021/10/07 03:06:07;;;;;;;17.70;9.93;;;;;;;10.07;56.87;101294.33;1741909;82;25631;-53
2021/10/07 03:08:34;;;;;;;14.70;10.43;;;;;;;10.02;56.84;101297.06;1741854;82;27342;-49
2021/10/07 03:11:01;;;;;;;16.48;9.25;;;;;;;9.99;56.96;101297.63;1741789;82;25722;-53
2021/10/07 03:13:28;;;;;;;15.05;9.40;;;;;;;9.96;57.01;101306.28;1741845;82;25668;-49
2021/10/07 03:15:54;;;;;;;18.17;9.75;;;;;;;9.92;57.09;101303.34;1741836;81;26203;-51
2021/10/07 03:18:21;;;;;;;15.93;9.68;;;;;;;9.91;56.99;101311.20;1741847;82;25695;-51
2021/10/07 03:20:48;;;;;;;20.15;10.30;;;;;;;9.89;56.94;101312.83;1741868;82;27335;-53
2021/10/07 03:23:14;;;;;;;15.85;9.28;;;;;;;9.90;56.97;101321.18;1741795;81;25664;-52
2021/10/07 03:25:41;;;;;;;19.00;9.23;;;;;;;9.91;57.07;101322.02;1745746;81;25629;-52
2021/10/07 03:28:08;;;;;;;14.75;9.50;;;;;;;9.88;56.87;101323.36;1752186;81;25613;-50
2021/10/07 03:30:36;;;;;;;16.75;9.45;;;;;;;9.85;56.87;101321.77;1752232;81;25622;-50
2021/10/07 03:33:08;;;;;;;17.90;9.63;;;;;;;9.81;56.89;101325.56;1752127;81;27966;-52
2021/10/07 03:35:36;;;;;;;18.87;9.95;;;;;;;9.76;56.86;101326.15;1752037;81;25696;-49
2021/10/07 03:38:04;;;;;;;15.08;10.23;;;;;;;9.70;56.91;101319.42;1752117;81;25695;-49
2021/10/07 03:40:32;;;;;;;14.90;9.53;;;;;;;9.67;56.84;101334.00;1752057;81;25629;-51
2021/10/07 03:42:59;;;;;;;17.32;9.65;;;;;;;9.62;56.95;101338.90;1752128;81;25616;-49
2021/10/07 03:45:26;;;;;;;17.10;9.35;;;;;;;9.62;56.95;101338.07;1752088;81;27962;-49
2021/10/07 03:47:55;;;;;;;17.17;9.75;;;;;;;9.56;56.92;101335.95;1726193;83;25693;-50
2021/10/07 03:50:21;;;;;;;16.70;10.38;;;;;;;9.55;56.99;101338.37;1752095;81;25710;-52
2021/10/07 03:52:49;;;;;;;17.55;9.53;;;;;;;9.51;56.97;101337.31;1752063;81;26249;-51
2021/10/07 03:55:17;;;;;;;20.97;9.83;;;;;;;9.50;57.01;101339.73;1752067;81;25505;-52
2021/10/07 03:57:44;;;;;;;15.28;9.90;;;;;;;9.48;57.14;101344.61;1718529;83;27401;-52
2021/10/07 04:00:12;;;;;;;22.00;10.55;;;;;;;9.47;57.11;101345.71;1718457;83;25604;-52
2021/10/07 04:02:39;;;;;;;16.00;9.95;;;;;;;9.45;57.09;101355.44;1689712;84;25734;-49
2021/10/07 04:05:09;;;;;;;17.23;10.38;;;;;;;9.41;56.99;101355.70;1718466;83;25789;-50
2021/10/07 04:07:36;;;;;;;18.07;9.78;;;;;;;9.35;57.18;101349.52;1718681;83;25453;-50
2021/10/07 04:10:05;;;;;;;16.12;9.43;;;;;;;9.31;57.08;101359.27;1688126;85;27343;-51
2021/10/07 04:12:34;;;;;;;17.15;10.38;;;;;;;9.25;57.07;101354.95;1718657;83;25723;-54
2021/10/07 04:15:01;;;;;;;15.50;9.93;;;;;;;9.21;57.14;101359.81;1718579;83;25666;-49
2021/10/07 04:17:28;;;;;;;14.83;9.03;;;;;;;9.16;57.29;101356.05;1688174;85;25951;-49
2021/10/07 04:19:55;;;;;;;14.98;9.98;;;;;;;9.13;57.34;101368.73;1718615;83;25491;-49
2021/10/07 04:22:22;;;;;;;18.73;9.50;;;;;;;9.10;57.32;101371.98;1688195;85;27976;-50
2021/10/07 04:24:49;;;;;;;12.82;9.33;;;;;;;9.06;57.42;101368.22;1718425;83;25634;-52
2021/10/07 04:27:16;;;;;;;14.58;9.30;;;;;;;9.02;57.53;101373.88;1655114;84;25630;-52
2021/10/07 04:29:43;;;;;;;19.45;10.13;;;;;;;9.00;57.53;101373.34;1685511;85;25708;-49
2021/10/07 04:32:10;;;;;;;16.80;9.45;;;;;;;8.98;57.61;101384.41;1724474;82;25665;-51
2021/10/07 04:34:37;;;;;;;16.87;9.28;;;;;;;8.94;57.58;101390.09;1731671;82;27338;-52
2021/10/07 04:37:05;;;;;;;18.05;10.03;;;;;;;8.91;57.64;101394.67;1731652;82;25467;-51
2021/10/07 04:39:32;;;;;;;13.38;9.88;;;;;;;8.90;57.75;101393.04;1731673;82;25505;-50
2021/10/07 04:41:58;;;;;;;16.55;9.68;;;;;;;8.88;57.85;101399.80;1731643;82;25664;-50
2021/10/07 04:44:25;;;;;;;15.00;9.90;;;;;;;8.86;57.89;101402.77;1731745;82;25524;-50
2021/10/07 04:46:52;;;;;;;17.15;9.45;;;;;;;8.85;57.88;101401.13;1731732;82;27308;-49
2021/10/07 04:49:19;;;;;;;15.30;10.10;;;;;;;8.84;58.03;101404.13;1731709;81;25941;-50
2021/10/07 04:51:45;;;;;;;16.12;8.85;;;;;;;8.82;58.03;101408.44;1731806;82;25466;-52
2021/10/07 04:54:13;;;;;;;14.15;9.98;;;;;;;8.80;58.09;101411.92;1731612;82;25646;-49
2021/10/07 04:56:41;;;;;;;20.65;9.98;;;;;;;8.75;58.10;101411.92;1731825;81;25519;-50
2021/10/07 04:59:08;;;;;;;17.35;10.15;;;;;;;8.74;58.21;101413.82;1731714;82;27421;-49
2021/10/07 05:01:35;;;;;;;15.58;10.25;;;;;;;8.72;58.33;101414.64;1731693;82;25516;-50
2021/10/07 05:04:04;;;;;;;19.73;10.60;;;;;;;8.67;58.31;101434.86;1731673;81;25512;-52
2021/10/07 05:06:31;;;;;;;20.15;10.25;;;;;;;8.63;58.32;101443.20;1731787;82;25614;-51
2021/10/07 05:08:58;;;;;;;18.90;10.98;;;;;;;8.59;58.40;101440.23;1731776;81;25921;-52
2021/10/07 05:11:25;;;;;;;17.10;10.70;;;;;;;8.56;58.59;101447.53;1731660;81;27383;-49
2021/10/07 05:13:52;;;;;;;19.27;10.18;;;;;;;8.52;58.59;101457.21;1731593;82;25777;-50
2021/10/07 05:16:21;;;;;;;12.90;9.83;;;;;;;8.48;58.66;101453.95;1731691;82;25522;-51
2021/10/07 05:18:47;;;;;;;19.27;10.13;;;;;;;8.48;58.88;101459.35;1707508;83;26425;-49
2021/10/07 05:21:14;;;;;;;16.95;9.43;;;;;;;8.49;58.97;101461.78;1741611;82;25531;-49
2021/10/07 05:23:41;;;;;;;19.05;10.58;;;;;;;8.51;58.89;101469.61;1741812;82;27343;-53
2021/10/07 05:26:09;;;;;;;14.30;9.70;;;;;;;8.52;58.93;101465.30;1731052;81;25698;-53
2021/10/07 05:28:36;;;;;;;23.12;9.35;;;;;;;8.53;59.08;101469.63;1728322;83;25707;-50
2021/10/07 05:31:03;;;;;;;17.50;10.03;;;;;;;8.54;58.97;101472.58;1697611;84;26204;-51
2021/10/07 05:33:29;;;;;;;20.32;10.03;;;;;;;8.55;58.93;101468.83;1697667;84;25675;-52
2021/10/07 05:35:56;;;;;;;15.18;9.18;;;;;;;8.57;58.99;101480.15;1733717;82;27347;-51
2021/10/07 05:38:23;;;;;;;20.27;9.63;;;;;;;8.59;59.01;101476.64;1728162;83;25825;-50
2021/10/07 05:40:49;;;;;;;16.40;9.78;;;;;;;8.62;58.81;101475.31;1697582;84;25720;-49
2021/10/07 05:43:16;;;;;;;19.95;9.30;;;;;;;8.65;58.95;101477.48;1728114;83;25454;-55
2021/10/07 05:45:42;;;;;;;16.67;9.00;;;;;;;8.67;58.88;101479.37;1696473;84;25862;-49
2021/10/07 05:48:09;;;;;;;18.45;9.35;;;;;;;8.71;58.90;101483.69;1728270;83;27965;-50
2021/10/07 05:50:36;;;;;;;23.95;9.90;;;;;;;8.72;58.78;101487.47;1697527;84;25486;-49
2021/10/07 05:53:03;;;;;;;19.05;9.78;;;;;;;8.75;58.78;101488.80;1728268;83;25463;-50
2021/10/07 05:55:30;;;;;;;17.15;8.38;;;;;;;8.76;58.67;101481.80;1697536;84;25715;-53
2021/10/07 05:57:57;;;;;;;21.40;9.05;;;;;;;8.78;58.60;101486.41;1728297;83;25483;-50
2021/10/07 06:00:24;;;;;;;14.85;9.65;;;;;;;8.81;58.54;101493.69;1697665;84;27432;-53
2021/10/07 06:02:51;;;;;;;15.23;9.33;;;;;;;8.86;58.65;101489.66;1728196;83;25712;-52
2021/10/07 06:05:17;;;;;;;16.70;8.53;;;;;;;8.91;58.86;101497.20;1697553;84;25509;-51
2021/10/07 06:07:45;;;;;;;13.88;8.70;;;;;;;8.94;58.40;101502.07;1728205;83;25616;-49
2021/10/07 06:10:14;;;;;;;18.40;9.08;;;;;;;8.97;58.25;101489.91;1733716;82;25695;-53
2021/10/07 06:12:43;;;;;;;19.87;9.78;;;;;;;9.02;58.35;101493.97;1728329;83;29698;-50
2021/10/07 06:15:12;;;;;;;20.23;9.70;;;;;;;9.12;58.14;101487.77;1728369;83;25700;-52
2021/10/07 06:17:39;;;;;;;14.47;8.20;;;;;;;9.18;58.10;101502.07;1697709;84;25496;-52
2021/10/07 06:20:20;;;;;;;14.68;8.20;;;;;;;9.24;57.85;101501.80;1728195;83;26227;-51
2021/10/07 06:22:37;;;;;;;17.07;9.23;;;;;;;9.35;58.04;101500.73;1695024;84;25514;-53
2021/10/07 06:25:05;;;;;;;14.87;8.20;;;;;;;9.48;58.05;101503.44;1728225;83;27338;-48
2021/10/07 06:27:32;;;;;;;18.62;8.43;;;;;;;9.67;57.53;101508.25;1690569;84;25637;-47
2021/10/07 06:29:59;;;;;;;15.68;8.25;;;;;;;9.76;57.01;101512.03;1718385;83;25515;-47
2021/10/07 06:32:25;;;;;;;15.18;8.03;;;;;;;9.88;56.87;101513.09;1688051;85;25662;-46
2021/10/07 06:34:52;;;;;;;15.43;8.30;;;;;;;9.87;56.57;101516.30;1718420;83;25478;-47
2021/10/07 06:37:19;;;;;;;13.40;8.15;;;;;;;9.91;56.39;101516.59;1688036;85;27339;-47
2021/10/07 06:39:45;;;;;;;17.12;8.73;;;;;;;9.99;56.43;101527.37;1718297;83;25543;-47
2021/10/07 06:42:12;;;;;;;16.85;8.05;;;;;;;10.13;56.35;101520.31;1688098;85;25561;-47
2021/10/07 06:44:38;;;;;;;28.17;8.98;;;;;;;10.34;56.68;101540.55;1718394;83;25542;-49
2021/10/07 06:47:06;;;;;;;23.32;8.25;;;;;;;10.48;55.73;101531.28;1688137;85;25486;-47
2021/10/07 06:49:32;;;;;;;16.45;8.98;;;;;;;10.57;55.62;101535.84;1718392;83;27453;-48
2021/10/07 06:51:59;;;;;;;18.90;7.90;;;;;;;10.73;55.34;101546.59;1687967;85;27107;-49
2021/10/07 06:54:26;;;;;;;14.05;7.97;;;;;;;10.78;54.58;101542.50;1718353;83;25679;-50
2021/10/07 06:56:54;;;;;;;17.87;8.10;;;;;;;10.80;54.70;101541.12;1688018;85;25685;-49
2021/10/07 06:59:21;;;;;;;15.68;7.95;;;;;;;10.87;54.44;101557.05;1718423;83;25569;-52
2021/10/07 07:01:48;;;;;;;14.73;7.87;;;;;;;10.98;54.22;101559.97;1688099;85;27967;-52
2021/10/07 07:04:16;;;;;;;18.20;7.78;;;;;;;11.13;53.85;101556.33;1718326;83;25671;-49
2021/10/07 07:06:45;;;;;;;15.15;7.87;;;;;;;11.28;53.73;101551.35;1688063;85;25673;-50
2021/10/07 07:09:12;;;;;;;17.10;9.43;;;;;;;11.47;53.34;101555.53;1718480;83;25691;-49
2021/10/07 07:11:40;;;;;;;19.20;8.60;;;;;;;11.62;52.97;101560.02;1688117;85;25524;-49
2021/10/07 07:14:07;;;;;;;15.23;8.20;;;;;;;11.83;53.32;101548.97;1718379;83;27967;-53
2021/10/07 07:16:35;;;;;;;14.35;7.75;;;;;;;12.11;52.04;101544.09;1687981;85;25708;-53
2021/10/07 07:19:02;;;;;;;22.48;8.50;;;;;;;12.30;52.51;101560.42;1718409;83;25558;-51
2021/10/07 07:21:32;;;;;;;14.58;7.60;;;;;;;12.52;51.47;101559.08;1688048;85;25629;-53
2021/10/07 07:24:00;;;;;;;23.38;9.08;;;;;;;12.88;51.70;101564.82;1718450;83;25551;-52
2021/10/07 07:26:29;;;;;;;17.52;7.50;;;;;;;13.38;50.94;101563.56;1688031;84;27339;-53
2021/10/07 07:28:57;;;;;;;14.17;8.00;;;;;;;14.06;50.84;101562.09;1718587;83;25637;-52
2021/10/07 07:31:25;;;;;;;18.20;7.20;;;;;;;14.69;48.63;101575.56;1688094;85;25598;-49
2021/10/07 07:33:53;;;;;;;13.13;7.37;;;;;;;15.04;47.70;101569.05;1718343;83;25709;-49
2021/10/07 07:36:23;;;;;;;15.75;7.97;;;;;;;15.06;46.56;101575.00;1718404;83;25527;-57
2021/10/07 07:38:52;;;;;;;15.18;7.83;;;;;;;15.11;47.44;101578.17;1688024;85;28991;-60
2021/10/07 07:41:19;;;;;;;16.10;7.37;;;;;;;15.07;47.42;101584.80;1718313;81;25626;-59
2021/10/07 07:43:46;;;;;;;18.92;8.30;;;;;;;14.93;47.00;101593.55;1718390;83;25483;-59
2021/10/07 07:46:17;;;;;;;13.93;7.55;;;;;;;14.80;47.76;101583.52;1688046;85;25638;-60
2021/10/07 07:48:42;;;;;;;19.05;7.80;;;;;;;14.96;48.24;101591.58;1718359;83;26401;-60
2021/10/07 07:51:09;;;;;;;15.65;7.00;;;;;;;15.15;47.97;101594.70;1718400;83;27346;-59
2021/10/07 07:53:35;;;;;;;15.40;7.72;;;;;;;15.25;47.71;101586.29;1688011;85;25727;-60
2021/10/07 07:56:03;;;;;;;21.45;7.37;;;;;;;15.30;47.76;101582.08;1718373;83;25485;-59
2021/10/07 07:58:30;;;;;;;14.83;7.25;;;;;;;15.39;47.33;101584.86;1688032;85;25684;-60
2021/10/07 08:00:57;;;;;;;18.45;7.87;;;;;;;15.44;47.41;101588.29;1718417;83;25485;-59
2021/10/07 08:03:25;;;;;;;14.75;7.60;;;;;;;15.36;46.06;101582.75;1688030;85;28094;-62
2021/10/07 08:05:52;;;;;;;18.25;7.10;;;;;;;15.17;46.42;101582.93;1718293;83;25654;-62
2021/10/07 08:08:18;;;;;;;14.50;7.40;;;;;;;15.16;46.43;101590.31;1688138;85;25641;-59
2021/10/07 08:10:45;;;;;;;20.08;6.72;;;;;;;14.97;45.62;101586.39;1718350;83;26215;-60
2021/10/07 08:13:15;;;;;;;16.52;6.97;;;;;;;14.89;46.63;101587.91;1688251;85;25626;-59
2021/10/07 08:15:43;;;;;;;21.30;7.72;;;;;;;15.12;47.11;101588.77;1718493;83;27411;-59
2021/10/07 08:18:11;;;;;;;18.02;7.40;;;;;;;15.26;46.24;101587.34;1688101;85;25645;-59
2021/10/07 08:20:39;;;;;;;16.62;7.22;;;;;;;15.19;45.99;101591.59;1718542;83;25606;-59
2021/10/07 08:23:06;;;;;;;22.48;7.72;;;;;;;15.29;46.84;101600.92;1726226;83;25604;-59
2021/10/07 08:25:33;;;;;;;20.20;7.12;;;;;;;15.22;46.00;101594.54;1752110;81;25640;-59
2021/10/07 08:28:00;;;;;;;18.60;7.28;;;;;;;15.31;46.10;101595.97;1745798;81;28109;-58
2021/10/07 08:30:27;;;;;;;11.18;7.15;;;;;;;15.58;46.56;101600.48;1741934;81;25709;-60
2021/10/07 08:32:53;;;;;;;17.35;7.55;;;;;;;15.76;46.49;101592.44;1741968;82;25650;-58
2021/10/07 08:35:20;;;;;;;21.77;8.30;;;;;;;16.16;46.90;101595.21;1741933;82;25612;-58
2021/10/07 08:37:47;;;;;;;13.62;6.78;;;;;;;16.49;45.46;101590.16;1742027;81;25518;-58
2021/10/07 08:40:15;;;;;;;17.55;7.05;;;;;;;16.58;45.68;101599.73;1741942;82;27312;-60
2021/10/07 08:42:43;;;;;;;11.63;6.30;;;;;;;16.66;44.67;101600.32;1741889;81;25490;-60
2021/10/07 08:45:11;;;;;;;17.20;7.05;;;;;;;16.78;45.89;101599.13;1741965;82;25498;-59
2021/10/07 08:47:41;;;;;;;14.87;6.85;;;;;;;17.16;45.25;101599.93;1741947;81;25630;-58
2021/10/07 08:50:13;;;;;;;21.07;6.47;;;;;;;17.38;44.13;101600.07;1741992;82;25511;-58
2021/10/07 08:52:40;;;;;;;15.25;6.17;;;;;;;17.59;44.05;101602.38;1741992;82;27357;-58
2021/10/07 08:55:08;;;;;;;13.83;6.80;;;;;;;17.84;44.56;101604.00;1741845;82;25646;-58
2021/10/07 08:57:35;;;;;;;12.65;6.65;;;;;;;18.10;44.25;101603.39;1741953;82;25475;-58
2021/10/07 09:00:05;;;;;;;16.85;6.53;;;;;;;18.27;43.74;101598.41;1703912;82;26209;-58
2021/10/07 09:02:37;;;;;;;13.32;5.95;;;;;;;18.31;42.98;101601.86;1742112;82;25507;-58
2021/10/07 09:05:17;;;;;;;16.80;6.85;;;;;;;18.57;43.11;101605.23;1740567;82;27506;-58
2021/10/07 09:08:04;;;;;;;15.58;6.42;;;;;;;18.85;42.46;101601.47;1741884;82;25470;-59
2021/10/07 09:10:44;;;;;;;16.00;6.75;;;;;;;18.94;41.98;101607.46;1741954;82;25618;-59
2021/10/07 09:13:21;;;;;;;19.87;6.65;;;;;;;19.06;41.28;101601.25;1741910;82;26236;-60
2021/10/07 09:15:51;;;;;;;14.23;6.47;;;;;;;19.17;41.93;101601.05;1741984;82;25698;-58
2021/10/07 09:18:20;;;;;;;9.73;5.40;;;;;;;19.33;41.79;101597.14;1741949;81;28057;-59
2021/10/07 09:20:50;;;;;;;17.70;7.10;;;;;;;19.65;41.56;101589.22;1741975;82;25460;-59
2021/10/07 09:23:35;;;;;;;13.13;7.62;;;;;;;19.85;39.62;101595.23;1741910;82;25621;-58
2021/10/07 09:26:12;;;;;;;13.65;6.35;;;;;;;19.62;40.15;101593.46;1741902;82;26290;-58
2021/10/07 09:29:00;;;;;;;11.97;6.53;;;;;;;19.51;39.64;101591.72;1741919;81;25642;-57
2021/10/07 09:31:34;;;;;;;13.25;6.08;;;;;;;19.59;39.87;101593.55;1741993;82;27395;-57
2021/10/07 09:34:05;;;;;;;18.98;5.50;;;;;;;19.52;39.38;101602.13;1741851;81;25470;-56
2021/10/07 09:36:33;;;;;;;12.58;5.47;;;;;;;19.47;39.53;101592.73;1741930;82;25669;-56
2021/10/07 09:39:02;;;;;;;17.15;5.83;;;;;;;19.83;40.21;101589.30;1742107;82;26252;-51
2021/10/07 09:41:32;;;;;;;13.62;6.15;;;;;;;20.27;40.03;101594.27;1742038;82;25675;-55
2021/10/07 09:44:04;;;;;;;16.95;5.62;;;;;;;20.74;40.31;101592.42;1741914;82;27327;-49
2021/10/07 09:46:52;;;;;;;15.72;6.15;;;;;;;21.17;39.53;101584.03;1741851;82;25697;-52
2021/10/07 09:49:34;;;;;;;14.68;5.40;;;;;;;21.40;37.50;101585.66;1741864;82;25756;-52
2021/10/07 09:52:02;;;;;;;11.38;5.08;;;;;;;21.14;37.46;101587.47;1741138;82;26294;-52
2021/10/07 09:54:37;;;;;;;11.53;5.28;;;;;;;20.86;37.46;101593.76;1741886;82;25681;-52
2021/10/07 09:57:04;;;;;;;18.35;5.78;;;;;;;20.98;37.34;101607.27;1741974;82;27346;-52
2021/10/07 09:59:33;;;;;;;12.80;5.70;;;;;;;20.77;36.88;101593.66;1741808;82;25692;-54
2021/10/07 10:02:01;;;;;;;8.25;4.97;;;;;;;20.80;37.63;101602.59;1741997;82;25510;-52
2021/10/07 10:04:31;;;;;;;12.23;4.90;;;;;;;20.75;37.33;101605.00;1741846;82;26174;-50
2021/10/07 10:06:57;;;;;;;15.93;5.35;;;;;;;20.63;36.80;101608.56;1741529;82;25534;-52
2021/10/07 10:09:27;;;;;;;12.82;4.92;;;;;;;20.60;36.61;101603.76;1740574;82;27328;-52
2021/10/07 10:11:55;;;;;;;11.95;5.55;;;;;;;20.50;36.40;101606.97;1741464;82;25751;-52
2021/10/07 10:14:23;;;;;;;8.43;4.62;;;;;;;20.25;36.53;101602.84;1741783;81;25688;-57
2021/10/07 10:16:52;;;;;;;9.18;5.58;;;;;;;20.10;36.24;101604.31;1741776;82;25669;-57
2021/10/07 10:19:19;;;;;;;11.00;5.67;;;;;;;19.95;37.62;101607.19;1741960;82;25744;-57
2021/10/07 10:21:47;;;;;;;14.15;5.00;;;;;;;20.18;37.08;101629.30;1741845;82;27316;-57
2021/10/07 10:24:15;;;;;;;13.88;4.67;;;;;;;20.23;37.09;101602.97;1741820;82;25676;-57
2021/10/07 10:26:45;;;;;;;10.15;4.53;;;;;;;20.46;37.47;101605.46;1741936;82;25640;-57
2021/10/07 10:29:23;;;;;;;12.03;5.20;;;;;;;20.59;36.11;101604.09;1749876;81;25689;-57
2021/10/07 10:31:54;;;;;;;12.55;5.78;;;;;;;20.50;36.42;101605.02;1752053;81;25719;-58
2021/10/07 10:34:23;;;;;;;11.10;5.35;;;;;;;20.50;36.41;101616.01;1751973;81;27342;-58
2021/10/07 10:36:59;;;;;;;10.28;4.97;;;;;;;20.38;35.48;101597.34;1752033;81;25649;-58
2021/10/07 10:39:35;;;;;;;18.62;5.78;;;;;;;20.21;35.54;101602.49;1718451;83;25492;-58
2021/10/07 10:42:24;;;;;;;11.33;5.37;;;;;;;20.25;35.95;101608.34;1718448;83;25724;-57
2021/10/07 10:44:57;;;;;;;10.65;5.53;;;;;;;20.38;36.05;101603.66;1726360;83;25707;-58
2021/10/07 10:47:32;;;;;;;13.58;5.05;;;;;;;20.60;36.41;101599.63;1752024;81;28064;-58
2021/10/07 10:50:04;;;;;;;12.85;4.85;;;;;;;20.80;35.59;101612.22;1720125;82;25751;-58
2021/10/07 10:52:42;;;;;;;14.73;5.25;;;;;;;20.78;35.09;101596.64;1724859;81;25449;-59
2021/10/07 10:55:18;;;;;;;12.43;5.35;;;;;;;20.77;35.01;101604.66;1726131;83;25668;-58
2021/10/07 10:58:01;;;;;;;13.65;6.42;;;;;;;20.70;35.70;101601.94;1726175;83;25612;-58
2021/10/07 11:00:34;;;;;;;15.08;5.20;;;;;;;20.87;35.70;101602.25;1752024;81;26978;-58
2021/10/07 11:03:17;;;;;;;20.90;5.53;;;;;;;21.12;35.12;101598.03;1751927;81;25722;-59
2021/10/07 11:06:03;;;;;;;8.65;4.87;;;;;;;21.39;34.59;101599.77;1752003;81;25687;-59
2021/10/07 11:08:43;;;;;;;18.62;6.10;;;;;;;21.56;34.85;101600.85;1751965;81;26250;-58
2021/10/07 11:11:26;;;;;;;16.27;4.95;;;;;;;21.71;34.08;101609.47;1751565;81;25744;-59
2021/10/07 11:13:55;;;;;;;17.40;4.80;;;;;;;21.41;33.29;101599.63;1750410;81;27356;-54
2021/10/07 11:16:24;;;;;;;15.85;5.28;;;;;;;21.23;32.57;101598.33;1751972;81;25623;-60
2021/10/07 11:18:50;;;;;;;;;;;;;;;21.01;33.26;101585.36;1754587;81;25474;-59
2021/10/07 11:21:27;;;;;;;15.30;5.62;;;;;;;20.96;32.47;101591.66;1751932;81;25665;-57
2021/10/07 11:23:54;;;;;;;19.57;5.83;;;;;;;20.95;34.01;101585.36;1750526;81;25466;-58
2021/10/07 11:26:31;;;;;;;13.22;5.08;;;;;;;21.26;33.75;101597.05;1752011;81;27948;-58
2021/10/07 11:28:56;;;;;;;15.53;4.92;;;;;;;21.33;33.01;101595.66;1745981;81;25625;-59
2021/10/07 11:31:32;;;;;;;9.40;5.17;;;;;;;21.41;32.58;101600.21;1741835;82;25513;-59